General Rodolfo Sanchez Taboada International Airport
MMML : now visible

Airfield :











YOU CAN JOIN US ON...

 
LOGIN :

Register | Disclaimer

   EN    FR    IT 

 









Legend :    VFR   Marginal VFR   IFR   Intensive IFR   Very Intensive IFR
Visi :
Ceiling :
>= 8 km
>= 3000ft
5 to 8 km
1000 to 3000 ft
1500m to 5 km
500 to 1000 ft
800 to 1500m
200 to 500 ft
< 800m
< 200 ft
Symbols :   Thunderstorms  Fog  Heavy snow  Heavy precipitations  Wind > 20 kt






- Airport Elevation : 74 ft
- IATA code : MXL


MMML - General Rodolfo Sanchez Taboada International

CURRENT METAR :
  • 060552Z 30004KT 10SM SKC 12/10 A3016 RMK SLP213 52007 941 ISOL CI

EXPIRED METARs :
  • 060452Z 31004KT 10SM SKC 13/11 A3017 RMK ISOL CI
  • 060352Z 00000KT 10SM FEW200 14/11 A3015 RMK 8/008

TAF TAF MMML
Valid from the 06 at 06:00 until the 07 at 06:00 UTC


060513Z 0606/0706 31004KT P6SM SCT200
FM061800 03008KT P6SM SCT080 SCT220
BECMG 0703/0705 28005KT



MET'MAP, your aeronautical weather chart ! - Copyright ORBIFLY December 2007 - Disclaimer

ORBIFLY MET'MAP TEAM :

Programming & Development : Alexandra Zaïnal
Concept & original design : Baudouin d'Aumeries
Assistance for programming : Marc-Olivier Méhu
Technical & hardware support : Manuel Goepfert

Contact : metmap@orbifly.com




SOURCES & CREDITS :

   NOAA       Earth
Advisory